FredonyerEastRWIS Atmospheric Data: 07/12/2018 Summary  Detailed Graphs  Station List

  Temperature     Wind Precipitation Visibility
Timestamp Air Wet
Bulb
Dew-
point
24-hr
Max
24-hr
Min
Relative
Humidity
Atmospheric
Pressure
Avg
Speed
Avg
Dir
Spot
Speed
Spot
Dir
Max
Speed
Max
Dir
  Rate Situation Start End 1 hr 3 hr 6 hr 12 hr 24 hr   Situation
Date Time °F °F °F °F °F % in Hg mph ° mph ° mph ° Y/N in/hr text Date Time Date Time in in in in in mi text
07/12/2018 12:08 AM 60.98 52.70 44.96 91.04 47.84 55.0 Not Reported 0.45 NW 1.34 N 2.68 NW No x No Precipitation 07/11/2018 09:51 PM 07/11/2018 09:52 PM x x x x x Not Reported Not Reported
07/12/2018 12:23 AM 60.62 52.70 44.96 91.04 47.84 56.0 Not Reported 1.34 W 0.67 SW 2.91 W No x No Precipitation 07/11/2018 09:51 PM 07/11/2018 09:52 PM x x x x x Not Reported Not Reported
07/12/2018 12:38 AM 60.44 52.52 44.96 91.04 47.84 56.0 Not Reported 0.89 N 1.79 NW 2.24 N No x No Precipitation 07/11/2018 09:51 PM 07/11/2018 09:52 PM x x x x x Not Reported Not Reported
07/12/2018 12:55 AM 59.90 52.16 44.60 91.04 47.84 57.0 Not Reported 0.22 N 1.12 NW 3.13 NW No x No Precipitation 07/11/2018 09:51 PM 07/11/2018 09:52 PM x x x x x Not Reported Not Reported
07/12/2018 01:08 AM 59.36 51.80 44.60 91.04 47.84 57.0 Not Reported 1.79 NW 1.79 NW 2.68 W No x No Precipitation 07/11/2018 09:51 PM 07/11/2018 09:52 PM x x x x x Not Reported Not Reported
07/12/2018 01:23 AM 59.18 51.80 44.60 91.04 47.84 58.0 Not Reported 1.79 N 2.01 NW 3.13 N No x No Precipitation 07/11/2018 09:51 PM 07/11/2018 09:52 PM x x x x x Not Reported Not Reported
07/12/2018 01:38 AM 59.18 51.80 44.78 91.04 47.84 58.0 Not Reported 0.89 NE 1.57 NW 2.24 NW No x No Precipitation 07/11/2018 09:51 PM 07/11/2018 09:52 PM x x x x x Not Reported Not Reported
07/12/2018 01:53 AM 58.46 51.44 44.60 91.04 47.84 59.0 Not Reported 2.46 NW 3.58 W 4.03 NW No x No Precipitation 07/11/2018 09:51 PM 07/11/2018 09:52 PM x x x x x Not Reported Not Reported
07/12/2018 02:08 AM 58.46 51.62 44.96 91.04 47.84 60.0 Not Reported 1.34 W 0.89 SE 4.03 SW No x No Precipitation 07/11/2018 09:51 PM 07/11/2018 09:52 PM x x x x x Not Reported Not Reported
07/12/2018 02:23 AM 58.28 51.44 45.14 91.04 47.84 61.0 Not Reported 0.89 NW 1.57 NW 2.68 NW No x No Precipitation 07/11/2018 09:51 PM 07/11/2018 09:52 PM x x x x x Not Reported Not Reported
07/12/2018 02:38 AM 57.56 51.26 45.14 91.04 47.84 62.0 Not Reported 2.01 NW 3.13 NW 3.13 NW No x No Precipitation 07/11/2018 09:51 PM 07/11/2018 09:52 PM x x x x x Not Reported Not Reported
07/12/2018 02:53 AM 57.20 51.08 45.14 91.04 47.84 64.0 Not Reported 1.34 NW 0.00 N 3.13 NW No x No Precipitation 07/11/2018 09:51 PM 07/11/2018 09:52 PM x x x x x Not Reported Not Reported
07/12/2018 03:09 AM 57.02 50.90 45.32 91.04 47.84 64.0 Not Reported 0.89 NW 1.34 N 2.24 N No x No Precipitation 07/11/2018 09:51 PM 07/11/2018 09:52 PM x x x x x Not Reported Not Reported
07/12/2018 03:25 AM 56.66 50.72 45.14 91.04 47.84 65.0 Not Reported 1.12 N 1.57 N 2.01 NW No x No Precipitation 07/11/2018 09:51 PM 07/11/2018 09:52 PM x x x x x Not Reported Not Reported
07/12/2018 03:41 AM 56.12 50.36 44.78 91.04 47.84 65.0 Not Reported 1.12 NW 1.34 NW 3.36 NW No x No Precipitation 07/11/2018 09:51 PM 07/11/2018 09:52 PM x x x x x Not Reported Not Reported
07/12/2018 03:53 AM 56.48 50.36 44.60 91.04 47.84 64.0 Not Reported 0.89 N 0.00 N 2.68 NW No x No Precipitation 07/11/2018 09:51 PM 07/11/2018 09:52 PM x x x x x Not Reported Not Reported
07/12/2018 04:09 AM 57.20 50.90 44.96 91.04 47.84 63.0 Not Reported 0.22 W 0.00 W 3.13 NW No x No Precipitation 07/11/2018 09:51 PM 07/11/2018 09:52 PM x x x x x Not Reported Not Reported
07/12/2018 04:25 AM 56.48 50.36 44.60 91.04 47.84 64.0 Not Reported 0.89 N 1.57 N 1.79 N No x No Precipitation 07/11/2018 09:51 PM 07/11/2018 09:52 PM x x x x x Not Reported Not Reported
07/12/2018 04:38 AM 56.12 50.18 44.60 91.04 47.84 65.0 Not Reported 0.22 NE 0.00 NE 2.68 NW No x No Precipitation 07/11/2018 09:51 PM 07/11/2018 09:52 PM x x x x x Not Reported Not Reported
07/12/2018 04:53 AM 56.12 50.36 44.78 91.04 47.84 65.0 Not Reported 1.57 N 1.34 E 4.25 NW No x No Precipitation 07/11/2018 09:51 PM 07/11/2018 09:52 PM x x x x x Not Reported Not Reported
07/12/2018 05:08 AM 56.48 50.36 44.60 91.04 47.84 64.0 Not Reported 1.57 NW 0.00 N 2.91 NW No x No Precipitation 07/11/2018 09:51 PM 07/11/2018 09:52 PM x x x x x Not Reported Not Reported
07/12/2018 05:23 AM 55.58 49.82 44.42 91.04 47.84 65.0 Not Reported 0.22 NE 0.00 N 2.01 N No x No Precipitation 07/11/2018 09:51 PM 07/11/2018 09:52 PM x x x x x Not Reported Not Reported
07/12/2018 05:38 AM 54.50 49.10 43.52 91.04 48.38 66.0 Not Reported 0.00 W 0.00 W 1.12 N No x No Precipitation 07/11/2018 09:51 PM 07/11/2018 09:52 PM x x x x x Not Reported Not Reported
07/12/2018 05:53 AM 53.78 48.38 42.98 91.04 48.38 66.0 Not Reported 0.00 N 0.00 N 0.67 NW No x No Precipitation 07/11/2018 09:51 PM 07/11/2018 09:52 PM x x x x x Not Reported Not Reported
07/12/2018 06:08 AM 53.24 48.02 42.62 91.04 48.38 67.0 Not Reported 0.00 NW 0.00 NW 0.00 x No x No Precipitation 07/11/2018 09:51 PM 07/11/2018 09:52 PM x x x x x Not Reported Not Reported
07/12/2018 06:24 AM 53.24 48.02 42.80 91.04 48.38 67.0 Not Reported 0.45 NE 0.22 NE 1.57 NW No x No Precipitation 07/11/2018 09:51 PM 07/11/2018 09:52 PM x x x x x Not Reported Not Reported
07/12/2018 06:38 AM 53.60 48.56 43.34 91.04 53.06 68.0 Not Reported 0.89 N 0.67 N 1.34 N No x No Precipitation 07/11/2018 09:51 PM 07/11/2018 09:52 PM x x x x x Not Reported Not Reported
07/12/2018 06:53 AM 54.32 49.28 44.42 91.04 53.06 68.0 Not Reported 0.00 N 0.00 N 0.00 x No x No Precipitation 07/11/2018 09:51 PM 07/11/2018 09:52 PM x x x x x Not Reported Not Reported
07/12/2018 07:08 AM 55.76 50.54 45.86 91.04 53.06 68.0 Not Reported 0.00 N 0.00 N 0.00 x No x No Precipitation 07/11/2018 09:51 PM 07/11/2018 09:52 PM x x x x x Not Reported Not Reported
07/12/2018 07:23 AM 58.10 52.52 47.84 91.04 53.06 68.0 Not Reported 0.00 SE 0.00 SE 0.45 SE No x No Precipitation 07/11/2018 09:51 PM 07/11/2018 09:52 PM x x x x x Not Reported Not Reported
07/12/2018 07:38 AM 62.78 55.94 50.54 91.04 53.06 64.0 Not Reported 0.00 S 0.00 E 0.67 S No x No Precipitation 07/11/2018 09:51 PM 07/11/2018 09:52 PM x x x x x Not Reported Not Reported
07/12/2018 07:53 AM 64.04 56.66 50.90 91.04 53.06 62.0 Not Reported 0.00 NE 0.00 NE 0.00 x No x No Precipitation 07/11/2018 09:51 PM 07/11/2018 09:52 PM x x x x x Not Reported Not Reported
07/12/2018 08:08 AM 67.28 59.00 52.88 91.04 53.06 59.0 Not Reported 1.12 SE 1.79 S 1.79 S No x No Precipitation 07/11/2018 09:51 PM 07/11/2018 09:52 PM x x x x x Not Reported Not Reported
07/12/2018 08:23 AM 69.62 60.08 53.24 91.04 53.06 55.0 Not Reported 0.67 S 0.22 S 1.57 S No x No Precipitation 07/11/2018 09:51 PM 07/11/2018 09:52 PM x x x x x Not Reported Not Reported
07/12/2018 08:42 AM 73.76 62.06 54.14 91.04 53.06 50.0 Not Reported 1.79 SE 0.67 S 2.91 SE No x No Precipitation 07/11/2018 09:51 PM 07/11/2018 09:52 PM x x x x x Not Reported Not Reported
07/12/2018 08:53 AM 75.20 62.78 54.14 91.04 53.06 47.0 Not Reported 1.57 E 0.00 S 4.25 SE No x No Precipitation 07/11/2018 09:51 PM 07/11/2018 09:52 PM x x x x x Not Reported Not Reported
07/12/2018 09:10 AM 77.00 63.14 52.88 91.04 53.06 42.0 Not Reported 3.13 SE 3.80 SE 5.14 S No x No Precipitation 07/11/2018 09:51 PM 07/11/2018 09:52 PM x x x x x Not Reported Not Reported
07/12/2018 09:23 AM 78.26 63.68 53.24 91.04 53.06 41.0 Not Reported 1.57 S 2.01 SE 5.37 E No x No Precipitation 07/11/2018 09:51 PM 07/11/2018 09:52 PM x x x x x Not Reported Not Reported
07/12/2018 09:38 AM 80.60 64.94 53.96 91.04 53.06 39.0 Not Reported 2.46 N 4.92 NE 6.26 NE No x No Precipitation 07/11/2018 09:51 PM 07/11/2018 09:52 PM x x x x x Not Reported Not Reported
07/12/2018 09:53 AM 81.50 65.48 54.14 91.04 53.06 38.0 Not Reported 2.24 SE 1.12 E 5.14 SE No x No Precipitation 07/12/2018 09:43 AM 07/12/2018 09:44 AM x x x x x Not Reported Not Reported
07/12/2018 10:08 AM 81.32 65.30 53.96 91.04 53.06 38.0 Not Reported 3.58 SE 2.91 SE 6.71 SE No x No Precipitation 07/12/2018 09:43 AM 07/12/2018 09:44 AM x x x x x Not Reported Not Reported
07/12/2018 10:23 AM 83.48 66.74 55.22 91.04 53.06 38.0 Not Reported 0.67 SE 0.89 W 6.26 NE No x No Precipitation 07/12/2018 09:43 AM 07/12/2018 09:44 AM x x x x x Not Reported Not Reported
07/12/2018 10:38 AM 85.46 67.82 56.30 91.04 53.06 37.0 Not Reported 2.01 NE 2.68 NE 6.26 S No x No Precipitation 07/12/2018 09:43 AM 07/12/2018 09:44 AM x x x x x Not Reported Not Reported
07/12/2018 10:53 AM 85.10 67.28 55.22 91.04 53.06 36.0 Not Reported 2.01 S 4.47 SE 7.61 SE No x No Precipitation 07/12/2018 09:43 AM 07/12/2018 09:44 AM x x x x x Not Reported Not Reported
07/12/2018 11:08 AM 86.72 68.18 56.12 91.04 53.06 35.0 Not Reported 4.47 SE 11.18 SE 9.17 NE No x No Precipitation 07/12/2018 09:43 AM 07/12/2018 09:44 AM x x x x x Not Reported Not Reported
07/12/2018 11:23 AM 86.90 68.18 55.94 91.04 53.06 34.0 Not Reported 4.47 E 4.25 E 7.38 E No x No Precipitation 07/12/2018 09:43 AM 07/12/2018 09:44 AM x x x x x Not Reported Not Reported
07/12/2018 11:38 AM 87.26 68.36 55.94 91.04 53.06 34.0 Not Reported 3.13 E 6.49 E 5.82 E No x No Precipitation 07/12/2018 09:43 AM 07/12/2018 09:44 AM x x x x x Not Reported Not Reported
07/12/2018 11:56 AM 88.16 69.26 56.66 91.04 53.06 34.0 Not Reported 2.01 N 0.00 W 6.93 NE No x No Precipitation 07/12/2018 09:43 AM 07/12/2018 09:44 AM x x x x x Not Reported Not Reported
07/12/2018 12:08 PM 88.70 69.26 56.84 91.04 53.06 34.0 Not Reported 3.13 W 5.59 S 9.17 SE No x No Precipitation 07/12/2018 09:43 AM 07/12/2018 09:44 AM x x x x x Not Reported Not Reported
07/12/2018 12:23 PM 89.42 69.80 57.20 91.04 53.06 33.0 Not Reported 3.13 NE 4.47 NE 8.28 SE No x No Precipitation 07/12/2018 09:43 AM 07/12/2018 09:44 AM x x x x x Not Reported Not Reported
07/12/2018 12:38 PM 89.06 69.62 57.02 91.04 53.06 33.0 Not Reported 4.92 NW 3.13 NW 11.41 NW No x No Precipitation 07/12/2018 09:43 AM 07/12/2018 09:44 AM x x x x x Not Reported Not Reported
07/12/2018 12:53 PM 90.14 70.34 57.92 91.04 53.06 33.0 Not Reported 5.14 SE 3.80 SE 8.72 S No x No Precipitation 07/12/2018 09:43 AM 07/12/2018 09:44 AM x x x x x Not Reported Not Reported
07/12/2018 01:08 PM 89.78 70.16 57.92 91.04 53.06 34.0 Not Reported 7.38 SW 8.28 SW 10.29 W No x No Precipitation 07/12/2018 09:43 AM 07/12/2018 09:44 AM x x x x x Not Reported Not Reported
07/12/2018 01:23 PM 90.32 70.52 58.10 91.04 53.06 33.0 Not Reported 5.37 SW 5.14 SW 9.40 SW No x No Precipitation 07/12/2018 09:43 AM 07/12/2018 09:44 AM x x x x x Not Reported Not Reported
07/12/2018 01:38 PM 91.04 70.70 58.10 91.40 53.06 33.0 Not Reported 5.37 W 3.36 NW 10.07 W No x No Precipitation 07/12/2018 09:43 AM 07/12/2018 09:44 AM x x x x x Not Reported Not Reported
07/12/2018 01:53 PM 91.58 70.88 57.92 91.76 53.06 32.0 Not Reported 2.01 NW 0.22 E 12.53 NW No x No Precipitation 07/12/2018 09:43 AM 07/12/2018 09:44 AM x x x x x Not Reported Not Reported
07/12/2018 02:08 PM 91.22 70.70 57.74 92.12 53.06 32.0 Not Reported 3.58 NW 0.00 NW 16.55 NW No x No Precipitation 07/12/2018 09:43 AM 07/12/2018 09:44 AM x x x x x Not Reported Not Reported
07/12/2018 02:23 PM 91.40 70.52 57.20 92.66 53.06 31.0 Not Reported 6.93 SW 4.47 W 13.87 SW No x No Precipitation 07/12/2018 09:43 AM 07/12/2018 09:44 AM x x x x x Not Reported Not Reported
07/12/2018 02:38 PM 92.84 71.24 57.74 93.02 53.06 31.0 Not Reported 5.59 W 7.83 W 9.40 SW No x No Precipitation 07/12/2018 09:43 AM 07/12/2018 09:44 AM x x x x x Not Reported Not Reported
07/12/2018 02:53 PM 91.58 70.34 56.66 93.02 53.06 31.0 Not Reported 4.47 SE 8.95 SW 12.97 SW No x No Precipitation 07/12/2018 09:43 AM 07/12/2018 09:44 AM x x x x x Not Reported Not Reported
07/12/2018 03:08 PM 93.20 71.60 58.46 93.74 53.06 31.0 Not Reported 3.80 S 2.46 W 8.28 S No x No Precipitation 07/12/2018 09:43 AM 07/12/2018 09:44 AM x x x x x Not Reported Not Reported
07/12/2018 03:23 PM 91.40 70.52 57.38 93.74 53.06 31.0 Not Reported 7.16 SE 2.24 SW 11.63 S No x No Precipitation 07/12/2018 09:43 AM 07/12/2018 09:44 AM x x x x x Not Reported Not Reported
07/12/2018 03:38 PM 92.66 71.24 58.28 93.74 53.06 31.0 Not Reported 5.82 SW 9.40 NW 9.84 W No x No Precipitation 07/12/2018 09:43 AM 07/12/2018 09:44 AM x x x x x Not Reported Not Reported
07/12/2018 03:53 PM 92.84 71.24 58.10 93.74 53.06 31.0 Not Reported 2.68 S 4.25 SE 9.17 SW No x No Precipitation 07/12/2018 09:43 AM 07/12/2018 09:44 AM x x x x x Not Reported Not Reported
07/12/2018 04:10 PM 93.02 71.60 58.46 93.74 53.06 31.0 Not Reported 3.80 S 3.36 W 9.84 SW No x No Precipitation 07/12/2018 09:43 AM 07/12/2018 09:44 AM x x x x x Not Reported Not Reported
07/12/2018 04:25 PM 92.12 71.06 58.10 93.74 53.06 31.0 Not Reported 7.16 S 5.37 S 11.18 W No x No Precipitation 07/12/2018 09:43 AM 07/12/2018 09:44 AM x x x x x Not Reported Not Reported
07/12/2018 04:40 PM 91.22 70.70 57.56 93.74 53.06 32.0 Not Reported 7.16 S 6.49 S 14.54 S No x No Precipitation 07/12/2018 09:43 AM 07/12/2018 09:44 AM x x x x x Not Reported Not Reported
07/12/2018 04:53 PM 92.48 71.42 58.64 93.74 53.06 32.0 Not Reported 5.14 SW 3.80 S 9.17 SW No x No Precipitation 07/12/2018 09:43 AM 07/12/2018 09:44 AM x x x x x Not Reported Not Reported
07/12/2018 05:08 PM 91.58 71.06 58.46 93.74 53.06 33.0 Not Reported 5.37 W 9.40 W 12.30 W No x No Precipitation 07/12/2018 09:43 AM 07/12/2018 09:44 AM x x x x x Not Reported Not Reported
07/12/2018 05:23 PM 90.14 70.16 57.92 93.74 53.06 33.0 Not Reported 8.50 S 4.47 SW 12.75 S No x No Precipitation 07/12/2018 09:43 AM 07/12/2018 09:44 AM x x x x x Not Reported Not Reported
07/12/2018 05:38 PM 90.68 70.70 58.64 93.74 53.06 34.0 Not Reported 5.59 S 6.71 S 11.18 NW No x No Precipitation 07/12/2018 09:43 AM 07/12/2018 09:44 AM x x x x x Not Reported Not Reported
07/12/2018 05:53 PM 90.50 70.88 59.00 93.74 53.06 34.0 Not Reported 2.46 W 8.72 SE 10.07 SW No x No Precipitation 07/12/2018 09:43 AM 07/12/2018 09:44 AM x x x x x Not Reported Not Reported
07/12/2018 06:08 PM 88.52 69.62 57.92 93.74 53.06 35.0 Not Reported 6.71 SW 7.83 W 13.87 NW No x No Precipitation 07/12/2018 09:43 AM 07/12/2018 09:44 AM x x x x x Not Reported Not Reported
07/12/2018 06:23 PM 88.16 69.62 58.28 93.74 53.06 36.0 Not Reported 3.13 SW 9.84 S 16.78 SW No x No Precipitation 07/12/2018 09:43 AM 07/12/2018 09:44 AM x x x x x Not Reported Not Reported
07/12/2018 06:38 PM 86.18 68.54 57.02 93.74 53.06 37.0 Not Reported 4.92 SW 0.67 SW 12.08 SW No x No Precipitation 07/12/2018 09:43 AM 07/12/2018 09:44 AM x x x x x Not Reported Not Reported
07/12/2018 06:53 PM 86.00 68.36 56.84 93.74 53.06 37.0 Not Reported 4.03 SW 6.26 W 10.74 SW No x No Precipitation 07/12/2018 09:43 AM 07/12/2018 09:44 AM x x x x x Not Reported Not Reported
07/12/2018 07:08 PM 84.74 67.46 55.76 93.74 53.06 37.0 Not Reported 4.03 W 2.46 S 11.18 SW No x No Precipitation 07/12/2018 09:43 AM 07/12/2018 09:44 AM x x x x x Not Reported Not Reported
07/12/2018 07:23 PM 82.76 66.02 54.68 93.74 53.06 38.0 Not Reported 3.80 SW 0.00 E 11.63 W No x No Precipitation 07/12/2018 09:43 AM 07/12/2018 09:44 AM x x x x x Not Reported Not Reported
07/12/2018 07:38 PM 81.50 65.30 53.96 93.74 53.06 38.0 Not Reported 3.58 W 2.46 S 7.16 W No x No Precipitation 07/12/2018 09:43 AM 07/12/2018 09:44 AM x x x x x Not Reported Not Reported
07/12/2018 07:53 PM 80.24 64.58 53.42 93.74 53.06 39.0 Not Reported 3.58 S 3.13 S 9.17 W No x No Precipitation 07/12/2018 09:43 AM 07/12/2018 09:44 AM x x x x x Not Reported Not Reported
07/12/2018 08:08 PM 79.16 64.04 52.88 93.74 53.06 40.0 Not Reported 2.91 W 5.59 S 7.61 SW No x No Precipitation 07/12/2018 09:43 AM 07/12/2018 09:44 AM x x x x x Not Reported Not Reported
07/12/2018 08:25 PM 77.90 63.32 52.34 93.74 53.06 41.0 Not Reported 2.68 SW 2.91 SW 8.72 SW No x No Precipitation 07/12/2018 09:43 AM 07/12/2018 09:44 AM x x x x x Not Reported Not Reported
07/12/2018 08:40 PM 75.92 62.06 51.80 93.74 53.06 42.0 Not Reported 2.68 SW 2.68 W 4.70 SW No x No Precipitation 07/12/2018 09:43 AM 07/12/2018 09:44 AM x x x x x Not Reported Not Reported
07/12/2018 08:53 PM 75.20 61.88 51.62 93.74 53.06 43.0 Not Reported 2.68 SW 3.36 SW 5.82 W No x No Precipitation 07/12/2018 09:43 AM 07/12/2018 09:44 AM x x x x x Not Reported Not Reported
07/12/2018 09:08 PM 74.84 61.52 51.62 93.74 53.06 44.0 Not Reported 3.80 W 5.82 W 7.61 SW No x No Precipitation 07/12/2018 09:43 AM 07/12/2018 09:44 AM x x x x x Not Reported Not Reported
07/12/2018 09:23 PM 74.48 61.52 51.44 93.74 53.06 44.0 Not Reported 4.92 SW 4.03 SW 8.50 W No x No Precipitation 07/12/2018 09:43 AM 07/12/2018 09:44 AM x x x x x Not Reported Not Reported
07/12/2018 09:38 PM 73.58 60.80 50.90 93.74 53.06 45.0 Not Reported 4.25 SW 3.36 SW 8.05 S No x No Precipitation 07/12/2018 09:43 AM 07/12/2018 09:44 AM x x x x x Not Reported Not Reported
07/12/2018 09:53 PM 73.40 60.80 51.08 93.74 53.06 45.0 Not Reported 1.34 S 4.25 SW 8.05 S No x No Precipitation 07/12/2018 09:43 AM 07/12/2018 09:44 AM x x x x x Not Reported Not Reported
07/12/2018 10:08 PM 72.86 60.44 51.08 93.74 53.06 46.0 Not Reported 1.79 SW 2.01 S 10.74 S No x No Precipitation 07/12/2018 09:43 AM 07/12/2018 09:44 AM x x x x x Not Reported Not Reported
07/12/2018 10:23 PM 72.86 60.80 51.44 93.74 53.06 47.0 Not Reported 3.36 SW 4.70 SW 9.40 SW No x No Precipitation 07/12/2018 10:16 PM 07/12/2018 10:17 PM x x x x x Not Reported Not Reported
07/12/2018 10:38 PM 72.68 60.80 51.80 93.74 53.06 47.0 Not Reported 4.25 S 5.82 SW 10.29 S No x No Precipitation 07/12/2018 10:16 PM 07/12/2018 10:17 PM x x x x x Not Reported Not Reported
07/12/2018 10:53 PM 72.50 60.80 51.80 93.74 53.06 48.0 Not Reported 3.58 S 1.57 S 8.28 SW No x No Precipitation 07/12/2018 10:16 PM 07/12/2018 10:17 PM x x x x x Not Reported Not Reported
07/12/2018 11:08 PM 72.32 60.62 51.62 93.74 53.06 48.0 Not Reported 2.91 NW 5.82 W 8.28 NW No x No Precipitation 07/12/2018 10:16 PM 07/12/2018 10:17 PM x x x x x Not Reported Not Reported
07/12/2018 11:25 PM 72.32 60.44 51.62 93.74 53.06 48.0 Not Reported 2.46 S 1.57 S 5.59 W No x No Precipitation 07/12/2018 10:16 PM 07/12/2018 10:17 PM x x x x x Not Reported Not Reported
07/12/2018 11:38 PM 70.88 59.72 50.90 93.74 53.06 48.0 Not Reported 2.91 W 2.91 S 6.26 W No x No Precipitation 07/12/2018 10:16 PM 07/12/2018 10:17 PM x x x x x Not Reported Not Reported
07/12/2018 11:53 PM 70.70 59.54 50.72 93.74 53.06 49.0 Not Reported 5.37 W 2.01 SW 12.75 S No x No Precipitation 07/12/2018 10:16 PM 07/12/2018 10:17 PM x x x x x Not Reported Not Reported